Fernwood, Washington
Current Conditions -  °F | °C
As of 2:35 PM on Thursday 23 Oct 2014 (Local Time) from KPWT Reporting Station
Broken Clouds Broken Clouds  
Wind Chill: 54°   Ceiling: 2500
Heat Index: 54°   Visibility: 10mi
Dew Point: 52°   Wind: 9mph
Humidity: 94%   Direction: 200°SSW
Pressure: 29.84"   Gusts: NA
Location:  47.5378°N, 122.589°W
Report Text: KPWT 232135Z AUTO 20008KT 10SM FEW017 BKN025 BKN035 12/11 A2984 RMK AO1
Loading
Personal Weather Stations






























Interactive Weather Map New forecast layout! Learn more

10-Day Weather Forecast

Advertisements
Track Severe Weather on mobile